sensor_id;sensor_type;location;lat;lon;timestamp;P1;durP1;ratioP1;P2;durP2;ratioP2
74541;SDS011;63015;45.378;20.360;2023-12-29T00:00:37;97.40;;;46.13;;
74541;SDS011;63015;45.378;20.360;2023-12-29T00:02:38;96.00;;;43.97;;
74541;SDS011;63015;45.378;20.360;2023-12-29T00:04:39;97.30;;;46.70;;
74541;SDS011;63015;45.378;20.360;2023-12-29T00:06:40;91.68;;;42.50;;
74541;SDS011;63015;45.378;20.360;2023-12-29T00:08:42;114.75;;;51.47;;
74541;SDS011;63015;45.378;20.360;2023-12-29T00:10:42;100.00;;;46.75;;
74541;SDS011;63015;45.378;20.360;2023-12-29T00:12:43;106.03;;;46.08;;
74541;SDS011;63015;45.378;20.360;2023-12-29T00:14:44;108.50;;;49.55;;
74541;SDS011;63015;45.378;20.360;2023-12-29T00:16:44;93.25;;;41.15;;
74541;SDS011;63015;45.378;20.360;2023-12-29T00:18:45;90.97;;;40.63;;
74541;SDS011;63015;45.378;20.360;2023-12-29T00:20:46;105.07;;;44.30;;
74541;SDS011;63015;45.378;20.360;2023-12-29T00:22:46;106.07;;;44.47;;
74541;SDS011;63015;45.378;20.360;2023-12-29T00:24:47;115.30;;;49.53;;
74541;SDS011;63015;45.378;20.360;2023-12-29T00:26:47;91.32;;;41.95;;
74541;SDS011;63015;45.378;20.360;2023-12-29T00:28:48;93.25;;;42.88;;
74541;SDS011;63015;45.378;20.360;2023-12-29T00:30:48;81.82;;;40.03;;
74541;SDS011;63015;45.378;20.360;2023-12-29T00:32:49;78.75;;;37.75;;
74541;SDS011;63015;45.378;20.360;2023-12-29T00:34:49;83.53;;;38.42;;
74541;SDS011;63015;45.378;20.360;2023-12-29T00:36:50;91.00;;;41.63;;
74541;SDS011;63015;45.378;20.360;2023-12-29T00:38:50;93.90;;;40.70;;
74541;SDS011;63015;45.378;20.360;2023-12-29T00:40:51;95.30;;;40.35;;
74541;SDS011;63015;45.378;20.360;2023-12-29T00:42:52;112.35;;;45.60;;
74541;SDS011;63015;45.378;20.360;2023-12-29T00:44:52;121.97;;;49.78;;
74541;SDS011;63015;45.378;20.360;2023-12-29T00:46:53;131.43;;;49.63;;
74541;SDS011;63015;45.378;20.360;2023-12-29T00:48:55;128.00;;;50.75;;
74541;SDS011;63015;45.378;20.360;2023-12-29T00:50:56;107.00;;;46.88;;
74541;SDS011;63015;45.378;20.360;2023-12-29T00:52:57;103.50;;;43.45;;
74541;SDS011;63015;45.378;20.360;2023-12-29T00:54:57;106.15;;;46.45;;
74541;SDS011;63015;45.378;20.360;2023-12-29T00:56:58;128.15;;;49.75;;
74541;SDS011;63015;45.378;20.360;2023-12-29T00:58:59;135.75;;;53.78;;
74541;SDS011;63015;45.378;20.360;2023-12-29T01:00:59;156.43;;;57.80;;
74541;SDS011;63015;45.378;20.360;2023-12-29T01:03:00;121.80;;;48.63;;
74541;SDS011;63015;45.378;20.360;2023-12-29T01:05:00;133.90;;;55.83;;
74541;SDS011;63015;45.378;20.360;2023-12-29T01:07:01;124.07;;;53.45;;
74541;SDS011;63015;45.378;20.360;2023-12-29T01:09:01;129.55;;;53.55;;
74541;SDS011;63015;45.378;20.360;2023-12-29T01:11:02;103.65;;;44.13;;
74541;SDS011;63015;45.378;20.360;2023-12-29T01:13:03;113.10;;;51.75;;
74541;SDS011;63015;45.378;20.360;2023-12-29T01:15:04;98.82;;;45.80;;
74541;SDS011;63015;45.378;20.360;2023-12-29T01:17:05;100.15;;;43.08;;
74541;SDS011;63015;45.378;20.360;2023-12-29T01:19:06;100.55;;;43.85;;
74541;SDS011;63015;45.378;20.360;2023-12-29T01:21:06;104.22;;;48.28;;
74541;SDS011;63015;45.378;20.360;2023-12-29T01:23:07;103.80;;;47.47;;
74541;SDS011;63015;45.378;20.360;2023-12-29T01:25:07;96.95;;;43.67;;
74541;SDS011;63015;45.378;20.360;2023-12-29T01:27:08;100.40;;;46.22;;
74541;SDS011;63015;45.378;20.360;2023-12-29T01:29:08;98.32;;;42.65;;
74541;SDS011;63015;45.378;20.360;2023-12-29T01:31:09;89.05;;;44.05;;
74541;SDS011;63015;45.378;20.360;2023-12-29T01:33:11;89.85;;;41.67;;
74541;SDS011;63015;45.378;20.360;2023-12-29T01:35:11;82.53;;;41.05;;
74541;SDS011;63015;45.378;20.360;2023-12-29T01:37:12;90.22;;;39.45;;
74541;SDS011;63015;45.378;20.360;2023-12-29T01:39:13;99.75;;;41.30;;
74541;SDS011;63015;45.378;20.360;2023-12-29T01:41:13;95.50;;;43.13;;
74541;SDS011;63015;45.378;20.360;2023-12-29T01:43:14;90.57;;;44.53;;
74541;SDS011;63015;45.378;20.360;2023-12-29T01:45:21;100.95;;;45.55;;
74541;SDS011;63015;45.378;20.360;2023-12-29T01:47:23;88.97;;;43.28;;
74541;SDS011;63015;45.378;20.360;2023-12-29T01:49:23;90.70;;;39.72;;
74541;SDS011;63015;45.378;20.360;2023-12-29T01:51:26;85.20;;;41.55;;
74541;SDS011;63015;45.378;20.360;2023-12-29T01:53:27;96.28;;;44.70;;
74541;SDS011;63015;45.378;20.360;2023-12-29T01:55:28;90.90;;;41.80;;
74541;SDS011;63015;45.378;20.360;2023-12-29T01:57:29;82.63;;;37.95;;
74541;SDS011;63015;45.378;20.360;2023-12-29T01:59:30;92.05;;;43.75;;
74541;SDS011;63015;45.378;20.360;2023-12-29T02:01:35;95.00;;;44.13;;
74541;SDS011;63015;45.378;20.360;2023-12-29T02:03:38;87.90;;;40.50;;
74541;SDS011;63015;45.378;20.360;2023-12-29T02:05:39;90.78;;;43.20;;
74541;SDS011;63015;45.378;20.360;2023-12-29T02:07:41;81.45;;;38.20;;
74541;SDS011;63015;45.378;20.360;2023-12-29T02:09:42;89.97;;;43.97;;
74541;SDS011;63015;45.378;20.360;2023-12-29T02:11:45;86.57;;;40.67;;
74541;SDS011;63015;45.378;20.360;2023-12-29T02:13:46;85.00;;;40.13;;
74541;SDS011;63015;45.378;20.360;2023-12-29T02:15:47;92.63;;;42.10;;
74541;SDS011;63015;45.378;20.360;2023-12-29T02:17:55;94.55;;;43.88;;
74541;SDS011;63015;45.378;20.360;2023-12-29T02:20:00;87.10;;;39.45;;
74541;SDS011;63015;45.378;20.360;2023-12-29T02:22:02;85.20;;;39.08;;
74541;SDS011;63015;45.378;20.360;2023-12-29T02:24:02;91.38;;;43.38;;
74541;SDS011;63015;45.378;20.360;2023-12-29T02:26:06;87.47;;;41.72;;
74541;SDS011;63015;45.378;20.360;2023-12-29T02:28:25;87.65;;;42.25;;
74541;SDS011;63015;45.378;20.360;2023-12-29T02:30:29;81.00;;;40.40;;
74541;SDS011;63015;45.378;20.360;2023-12-29T02:32:44;89.93;;;41.88;;
74541;SDS011;63015;45.378;20.360;2023-12-29T02:34:47;96.20;;;42.33;;
74541;SDS011;63015;45.378;20.360;2023-12-29T02:36:50;85.35;;;38.83;;
74541;SDS011;63015;45.378;20.360;2023-12-29T02:38:52;89.57;;;41.15;;
74541;SDS011;63015;45.378;20.360;2023-12-29T02:40:52;87.97;;;42.78;;
74541;SDS011;63015;45.378;20.360;2023-12-29T02:42:53;88.88;;;42.53;;
74541;SDS011;63015;45.378;20.360;2023-12-29T02:44:54;81.70;;;41.63;;
74541;SDS011;63015;45.378;20.360;2023-12-29T02:46:55;87.13;;;38.65;;
74541;SDS011;63015;45.378;20.360;2023-12-29T02:48:55;94.05;;;43.72;;
74541;SDS011;63015;45.378;20.360;2023-12-29T02:50:56;88.43;;;40.15;;
74541;SDS011;63015;45.378;20.360;2023-12-29T02:52:56;85.35;;;40.70;;
74541;SDS011;63015;45.378;20.360;2023-12-29T02:54:58;98.80;;;44.85;;
74541;SDS011;63015;45.378;20.360;2023-12-29T02:56:59;90.38;;;43.15;;
74541;SDS011;63015;45.378;20.360;2023-12-29T02:58:59;93.57;;;44.08;;
74541;SDS011;63015;45.378;20.360;2023-12-29T03:01:03;96.80;;;44.60;;
74541;SDS011;63015;45.378;20.360;2023-12-29T03:03:03;77.30;;;37.80;;
74541;SDS011;63015;45.378;20.360;2023-12-29T03:05:04;83.70;;;40.75;;
74541;SDS011;63015;45.378;20.360;2023-12-29T03:07:05;87.63;;;42.13;;
74541;SDS011;63015;45.378;20.360;2023-12-29T03:09:06;75.80;;;35.63;;
74541;SDS011;63015;45.378;20.360;2023-12-29T03:11:06;85.93;;;37.60;;
74541;SDS011;63015;45.378;20.360;2023-12-29T03:13:07;98.65;;;43.53;;
74541;SDS011;63015;45.378;20.360;2023-12-29T03:15:07;99.22;;;46.70;;
74541;SDS011;63015;45.378;20.360;2023-12-29T03:17:08;96.47;;;42.20;;
74541;SDS011;63015;45.378;20.360;2023-12-29T03:19:09;114.72;;;48.97;;
74541;SDS011;63015;45.378;20.360;2023-12-29T03:21:10;108.95;;;45.22;;
74541;SDS011;63015;45.378;20.360;2023-12-29T03:23:10;111.47;;;47.45;;
74541;SDS011;63015;45.378;20.360;2023-12-29T03:25:11;85.70;;;39.40;;
74541;SDS011;63015;45.378;20.360;2023-12-29T03:27:11;102.43;;;46.55;;
74541;SDS011;63015;45.378;20.360;2023-12-29T03:29:13;95.70;;;42.83;;
74541;SDS011;63015;45.378;20.360;2023-12-29T03:31:13;97.30;;;46.53;;
74541;SDS011;63015;45.378;20.360;2023-12-29T03:33:15;104.72;;;46.97;;
74541;SDS011;63015;45.378;20.360;2023-12-29T03:35:15;103.45;;;47.75;;
74541;SDS011;63015;45.378;20.360;2023-12-29T03:37:17;96.97;;;46.28;;
74541;SDS011;63015;45.378;20.360;2023-12-29T03:39:19;94.93;;;46.80;;
74541;SDS011;63015;45.378;20.360;2023-12-29T03:41:20;110.35;;;50.63;;
74541;SDS011;63015;45.378;20.360;2023-12-29T03:43:21;101.03;;;46.22;;
74541;SDS011;63015;45.378;20.360;2023-12-29T03:45:21;100.68;;;45.75;;
74541;SDS011;63015;45.378;20.360;2023-12-29T03:47:22;97.05;;;48.05;;
74541;SDS011;63015;45.378;20.360;2023-12-29T03:49:23;109.80;;;49.58;;
74541;SDS011;63015;45.378;20.360;2023-12-29T03:51:23;116.25;;;49.63;;
74541;SDS011;63015;45.378;20.360;2023-12-29T03:53:24;110.20;;;51.05;;
74541;SDS011;63015;45.378;20.360;2023-12-29T03:55:25;116.43;;;48.63;;
74541;SDS011;63015;45.378;20.360;2023-12-29T03:57:25;110.03;;;50.22;;
74541;SDS011;63015;45.378;20.360;2023-12-29T03:59:26;112.18;;;51.35;;
74541;SDS011;63015;45.378;20.360;2023-12-29T04:01:26;110.88;;;49.88;;
74541;SDS011;63015;45.378;20.360;2023-12-29T04:03:30;107.05;;;49.70;;
74541;SDS011;63015;45.378;20.360;2023-12-29T04:05:31;99.22;;;42.10;;
74541;SDS011;63015;45.378;20.360;2023-12-29T04:07:31;94.93;;;42.95;;
74541;SDS011;63015;45.378;20.360;2023-12-29T04:09:32;111.70;;;49.08;;
74541;SDS011;63015;45.378;20.360;2023-12-29T04:11:33;122.68;;;55.35;;
74541;SDS011;63015;45.378;20.360;2023-12-29T04:13:34;93.70;;;43.53;;
74541;SDS011;63015;45.378;20.360;2023-12-29T04:15:35;112.25;;;50.28;;
74541;SDS011;63015;45.378;20.360;2023-12-29T04:17:35;103.78;;;46.50;;
74541;SDS011;63015;45.378;20.360;2023-12-29T04:19:36;111.32;;;51.53;;
74541;SDS011;63015;45.378;20.360;2023-12-29T04:21:36;94.20;;;43.83;;
74541;SDS011;63015;45.378;20.360;2023-12-29T04:23:37;108.15;;;49.72;;
74541;SDS011;63015;45.378;20.360;2023-12-29T04:25:38;98.35;;;40.83;;
74541;SDS011;63015;45.378;20.360;2023-12-29T04:27:40;124.78;;;51.20;;
74541;SDS011;63015;45.378;20.360;2023-12-29T04:29:41;111.53;;;50.80;;
74541;SDS011;63015;45.378;20.360;2023-12-29T04:31:41;113.63;;;49.53;;
74541;SDS011;63015;45.378;20.360;2023-12-29T04:33:42;111.35;;;46.65;;
74541;SDS011;63015;45.378;20.360;2023-12-29T04:35:42;106.32;;;48.03;;
74541;SDS011;63015;45.378;20.360;2023-12-29T04:37:44;104.30;;;46.90;;
74541;SDS011;63015;45.378;20.360;2023-12-29T04:39:45;108.28;;;44.90;;
74541;SDS011;63015;45.378;20.360;2023-12-29T04:41:46;89.20;;;41.33;;
74541;SDS011;63015;45.378;20.360;2023-12-29T04:43:46;93.22;;;42.60;;
74541;SDS011;63015;45.378;20.360;2023-12-29T04:45:47;101.53;;;46.53;;
74541;SDS011;63015;45.378;20.360;2023-12-29T04:47:47;100.25;;;44.60;;
74541;SDS011;63015;45.378;20.360;2023-12-29T04:49:48;90.95;;;43.10;;
74541;SDS011;63015;45.378;20.360;2023-12-29T04:51:49;98.28;;;46.00;;
74541;SDS011;63015;45.378;20.360;2023-12-29T04:53:51;102.22;;;44.83;;
74541;SDS011;63015;45.378;20.360;2023-12-29T04:55:51;95.50;;;42.92;;
74541;SDS011;63015;45.378;20.360;2023-12-29T04:57:52;113.70;;;49.75;;
74541;SDS011;63015;45.378;20.360;2023-12-29T04:59:52;98.88;;;46.17;;
74541;SDS011;63015;45.378;20.360;2023-12-29T05:03:56;90.50;;;41.20;;
74541;SDS011;63015;45.378;20.360;2023-12-29T05:05:57;108.95;;;49.85;;
74541;SDS011;63015;45.378;20.360;2023-12-29T05:07:57;120.32;;;56.60;;
74541;SDS011;63015;45.378;20.360;2023-12-29T05:09:58;89.05;;;44.45;;
74541;SDS011;63015;45.378;20.360;2023-12-29T05:11:58;95.70;;;46.28;;
74541;SDS011;63015;45.378;20.360;2023-12-29T05:13:59;105.68;;;47.05;;
74541;SDS011;63015;45.378;20.360;2023-12-29T05:15:59;100.50;;;45.80;;
74541;SDS011;63015;45.378;20.360;2023-12-29T05:18:00;106.97;;;49.25;;
74541;SDS011;63015;45.378;20.360;2023-12-29T05:20:01;94.95;;;42.83;;
74541;SDS011;63015;45.378;20.360;2023-12-29T05:22:02;99.97;;;46.13;;
74541;SDS011;63015;45.378;20.360;2023-12-29T05:24:02;87.15;;;41.58;;
74541;SDS011;63015;45.378;20.360;2023-12-29T05:26:04;99.15;;;43.50;;
74541;SDS011;63015;45.378;20.360;2023-12-29T05:28:05;89.30;;;40.88;;
74541;SDS011;63015;45.378;20.360;2023-12-29T05:30:06;101.70;;;49.28;;
74541;SDS011;63015;45.378;20.360;2023-12-29T05:32:06;92.10;;;46.40;;
74541;SDS011;63015;45.378;20.360;2023-12-29T05:34:08;92.97;;;45.13;;
74541;SDS011;63015;45.378;20.360;2023-12-29T05:36:09;100.22;;;44.15;;
74541;SDS011;63015;45.378;20.360;2023-12-29T05:38:10;101.43;;;44.58;;
74541;SDS011;63015;45.378;20.360;2023-12-29T05:40:11;96.05;;;46.15;;
74541;SDS011;63015;45.378;20.360;2023-12-29T05:42:12;86.07;;;42.05;;
74541;SDS011;63015;45.378;20.360;2023-12-29T05:44:12;101.38;;;46.80;;
74541;SDS011;63015;45.378;20.360;2023-12-29T05:46:13;95.95;;;46.75;;
74541;SDS011;63015;45.378;20.360;2023-12-29T05:48:13;93.75;;;44.53;;
74541;SDS011;63015;45.378;20.360;2023-12-29T05:50:14;88.70;;;44.50;;
74541;SDS011;63015;45.378;20.360;2023-12-29T05:52:15;96.07;;;43.60;;
74541;SDS011;63015;45.378;20.360;2023-12-29T05:54:16;87.57;;;42.63;;
74541;SDS011;63015;45.378;20.360;2023-12-29T05:56:16;94.03;;;42.35;;
74541;SDS011;63015;45.378;20.360;2023-12-29T05:58:17;74.68;;;38.20;;
74541;SDS011;63015;45.378;20.360;2023-12-29T06:00:17;79.78;;;40.25;;
74541;SDS011;63015;45.378;20.360;2023-12-29T06:02:18;85.13;;;39.63;;
74541;SDS011;63015;45.378;20.360;2023-12-29T06:04:18;83.13;;;41.00;;
74541;SDS011;63015;45.378;20.360;2023-12-29T06:06:19;72.65;;;37.00;;
74541;SDS011;63015;45.378;20.360;2023-12-29T06:08:19;85.15;;;40.72;;
74541;SDS011;63015;45.378;20.360;2023-12-29T06:10:20;45.45;;;24.75;;
74541;SDS011;63015;45.378;20.360;2023-12-29T06:12:21;81.43;;;40.95;;
74541;SDS011;63015;45.378;20.360;2023-12-29T06:14:21;76.75;;;34.65;;
74541;SDS011;63015;45.378;20.360;2023-12-29T06:16:23;77.70;;;38.35;;
74541;SDS011;63015;45.378;20.360;2023-12-29T06:18:25;83.18;;;37.97;;
74541;SDS011;63015;45.378;20.360;2023-12-29T06:20:26;75.22;;;35.40;;
74541;SDS011;63015;45.378;20.360;2023-12-29T06:22:27;67.95;;;31.90;;
74541;SDS011;63015;45.378;20.360;2023-12-29T06:24:28;81.35;;;36.88;;
74541;SDS011;63015;45.378;20.360;2023-12-29T06:26:28;78.25;;;38.40;;
74541;SDS011;63015;45.378;20.360;2023-12-29T06:28:29;84.93;;;39.78;;
74541;SDS011;63015;45.378;20.360;2023-12-29T06:30:29;76.32;;;39.20;;
74541;SDS011;63015;45.378;20.360;2023-12-29T06:32:30;80.05;;;37.20;;
74541;SDS011;63015;45.378;20.360;2023-12-29T06:34:31;77.97;;;36.92;;
74541;SDS011;63015;45.378;20.360;2023-12-29T06:36:32;73.78;;;34.67;;
74541;SDS011;63015;45.378;20.360;2023-12-29T06:38:33;83.72;;;38.70;;
74541;SDS011;63015;45.378;20.360;2023-12-29T06:40:33;81.13;;;38.55;;
74541;SDS011;63015;45.378;20.360;2023-12-29T06:42:34;83.57;;;37.60;;
74541;SDS011;63015;45.378;20.360;2023-12-29T06:44:35;80.28;;;38.42;;
74541;SDS011;63015;45.378;20.360;2023-12-29T06:46:39;84.60;;;37.15;;
74541;SDS011;63015;45.378;20.360;2023-12-29T06:48:41;81.82;;;39.08;;
74541;SDS011;63015;45.378;20.360;2023-12-29T06:50:41;90.15;;;40.83;;
74541;SDS011;63015;45.378;20.360;2023-12-29T06:52:42;75.93;;;37.47;;
74541;SDS011;63015;45.378;20.360;2023-12-29T06:54:43;77.75;;;36.67;;
74541;SDS011;63015;45.378;20.360;2023-12-29T06:56:43;81.35;;;37.97;;
74541;SDS011;63015;45.378;20.360;2023-12-29T06:58:44;79.55;;;39.65;;
74541;SDS011;63015;45.378;20.360;2023-12-29T07:00:44;74.40;;;35.90;;
74541;SDS011;63015;45.378;20.360;2023-12-29T07:02:45;77.90;;;37.08;;
74541;SDS011;63015;45.378;20.360;2023-12-29T07:04:46;71.43;;;34.30;;
74541;SDS011;63015;45.378;20.360;2023-12-29T07:06:46;67.60;;;32.47;;
74541;SDS011;63015;45.378;20.360;2023-12-29T07:08:47;71.13;;;36.95;;
74541;SDS011;63015;45.378;20.360;2023-12-29T07:10:47;68.55;;;34.30;;
74541;SDS011;63015;45.378;20.360;2023-12-29T07:12:50;60.45;;;30.38;;
74541;SDS011;63015;45.378;20.360;2023-12-29T07:14:50;72.75;;;35.78;;
74541;SDS011;63015;45.378;20.360;2023-12-29T07:16:52;68.47;;;33.33;;
74541;SDS011;63015;45.378;20.360;2023-12-29T07:18:53;72.07;;;35.08;;
74541;SDS011;63015;45.378;20.360;2023-12-29T07:20:54;65.60;;;31.73;;
74541;SDS011;63015;45.378;20.360;2023-12-29T07:22:54;105.07;;;42.10;;
74541;SDS011;63015;45.378;20.360;2023-12-29T07:24:55;93.00;;;39.40;;
74541;SDS011;63015;45.378;20.360;2023-12-29T07:26:55;76.97;;;36.20;;
74541;SDS011;63015;45.378;20.360;2023-12-29T07:28:56;80.03;;;36.47;;
74541;SDS011;63015;45.378;20.360;2023-12-29T07:30:57;74.80;;;39.78;;
74541;SDS011;63015;45.378;20.360;2023-12-29T07:32:58;73.78;;;36.72;;
74541;SDS011;63015;45.378;20.360;2023-12-29T07:34:58;69.28;;;35.20;;
74541;SDS011;63015;45.378;20.360;2023-12-29T07:36:59;71.40;;;36.35;;
74541;SDS011;63015;45.378;20.360;2023-12-29T07:39:00;64.28;;;31.48;;
74541;SDS011;63015;45.378;20.360;2023-12-29T07:41:01;61.22;;;31.10;;
74541;SDS011;63015;45.378;20.360;2023-12-29T07:43:02;72.68;;;36.97;;
74541;SDS011;63015;45.378;20.360;2023-12-29T07:45:04;76.78;;;34.40;;
74541;SDS011;63015;45.378;20.360;2023-12-29T07:47:05;82.95;;;39.95;;
74541;SDS011;63015;45.378;20.360;2023-12-29T07:49:05;71.03;;;34.10;;
74541;SDS011;63015;45.378;20.360;2023-12-29T07:51:06;81.82;;;38.78;;
74541;SDS011;63015;45.378;20.360;2023-12-29T07:53:07;77.20;;;36.58;;
74541;SDS011;63015;45.378;20.360;2023-12-29T07:55:07;67.00;;;30.70;;
74541;SDS011;63015;45.378;20.360;2023-12-29T07:57:09;72.57;;;33.97;;
74541;SDS011;63015;45.378;20.360;2023-12-29T07:59:09;84.28;;;41.30;;
74541;SDS011;63015;45.378;20.360;2023-12-29T08:01:10;103.60;;;44.55;;
74541;SDS011;63015;45.378;20.360;2023-12-29T08:03:11;83.53;;;39.88;;
74541;SDS011;63015;45.378;20.360;2023-12-29T08:05:11;71.07;;;33.65;;
74541;SDS011;63015;45.378;20.360;2023-12-29T08:07:12;58.92;;;29.25;;
74541;SDS011;63015;45.378;20.360;2023-12-29T08:09:12;73.00;;;38.22;;
74541;SDS011;63015;45.378;20.360;2023-12-29T08:11:16;62.42;;;32.03;;
74541;SDS011;63015;45.378;20.360;2023-12-29T08:13:17;64.80;;;32.50;;
74541;SDS011;63015;45.378;20.360;2023-12-29T08:15:17;70.10;;;34.45;;
74541;SDS011;63015;45.378;20.360;2023-12-29T08:17:19;57.75;;;30.25;;
74541;SDS011;63015;45.378;20.360;2023-12-29T08:19:19;68.38;;;36.20;;
74541;SDS011;63015;45.378;20.360;2023-12-29T08:21:21;75.35;;;36.97;;
74541;SDS011;63015;45.378;20.360;2023-12-29T08:23:22;78.65;;;43.15;;
74541;SDS011;63015;45.378;20.360;2023-12-29T08:25:23;68.38;;;36.95;;
74541;SDS011;63015;45.378;20.360;2023-12-29T08:27:23;75.40;;;37.28;;
74541;SDS011;63015;45.378;20.360;2023-12-29T08:29:25;67.65;;;35.55;;
74541;SDS011;63015;45.378;20.360;2023-12-29T08:31:26;65.13;;;31.75;;
74541;SDS011;63015;45.378;20.360;2023-12-29T08:33:29;57.28;;;30.95;;
74541;SDS011;63015;45.378;20.360;2023-12-29T08:35:29;67.93;;;31.80;;
74541;SDS011;63015;45.378;20.360;2023-12-29T08:37:30;67.30;;;31.98;;
74541;SDS011;63015;45.378;20.360;2023-12-29T08:39:30;74.90;;;36.10;;
74541;SDS011;63015;45.378;20.360;2023-12-29T08:41:31;63.00;;;31.00;;
74541;SDS011;63015;45.378;20.360;2023-12-29T08:43:31;77.93;;;36.90;;
74541;SDS011;63015;45.378;20.360;2023-12-29T08:45:32;71.50;;;35.05;;
74541;SDS011;63015;45.378;20.360;2023-12-29T08:47:33;78.95;;;37.67;;
74541;SDS011;63015;45.378;20.360;2023-12-29T08:49:36;78.10;;;37.38;;
74541;SDS011;63015;45.378;20.360;2023-12-29T08:51:38;78.95;;;35.40;;
74541;SDS011;63015;45.378;20.360;2023-12-29T08:53:38;79.38;;;40.63;;
74541;SDS011;63015;45.378;20.360;2023-12-29T08:55:41;70.25;;;37.47;;
74541;SDS011;63015;45.378;20.360;2023-12-29T08:57:42;78.55;;;39.88;;
74541;SDS011;63015;45.378;20.360;2023-12-29T08:59:42;72.32;;;35.63;;
74541;SDS011;63015;45.378;20.360;2023-12-29T09:01:43;55.20;;;28.58;;
74541;SDS011;63015;45.378;20.360;2023-12-29T09:03:45;68.90;;;33.33;;
74541;SDS011;63015;45.378;20.360;2023-12-29T09:05:46;76.63;;;35.97;;
74541;SDS011;63015;45.378;20.360;2023-12-29T09:07:48;66.47;;;34.90;;
74541;SDS011;63015;45.378;20.360;2023-12-29T09:09:49;65.63;;;34.22;;
74541;SDS011;63015;45.378;20.360;2023-12-29T09:11:52;71.20;;;34.78;;
74541;SDS011;63015;45.378;20.360;2023-12-29T09:13:53;54.50;;;28.92;;
74541;SDS011;63015;45.378;20.360;2023-12-29T09:15:56;54.22;;;27.27;;
74541;SDS011;63015;45.378;20.360;2023-12-29T09:17:57;60.30;;;31.15;;
74541;SDS011;63015;45.378;20.360;2023-12-29T09:20:00;62.00;;;30.10;;
74541;SDS011;63015;45.378;20.360;2023-12-29T09:22:01;60.58;;;32.00;;
74541;SDS011;63015;45.378;20.360;2023-12-29T09:24:01;62.10;;;30.77;;
74541;SDS011;63015;45.378;20.360;2023-12-29T09:26:02;55.58;;;29.75;;
74541;SDS011;63015;45.378;20.360;2023-12-29T09:28:02;60.80;;;31.83;;
74541;SDS011;63015;45.378;20.360;2023-12-29T09:30:04;55.40;;;27.50;;
74541;SDS011;63015;45.378;20.360;2023-12-29T09:32:07;59.15;;;29.20;;
74541;SDS011;63015;45.378;20.360;2023-12-29T09:34:07;57.40;;;29.25;;
74541;SDS011;63015;45.378;20.360;2023-12-29T09:36:08;57.90;;;29.23;;
74541;SDS011;63015;45.378;20.360;2023-12-29T09:38:09;58.20;;;28.80;;
74541;SDS011;63015;45.378;20.360;2023-12-29T09:40:10;63.35;;;33.75;;
74541;SDS011;63015;45.378;20.360;2023-12-29T09:42:13;56.97;;;29.42;;
74541;SDS011;63015;45.378;20.360;2023-12-29T09:44:24;55.63;;;29.00;;
74541;SDS011;63015;45.378;20.360;2023-12-29T09:46:26;58.05;;;32.10;;
74541;SDS011;63015;45.378;20.360;2023-12-29T09:48:28;55.85;;;30.88;;
74541;SDS011;63015;45.378;20.360;2023-12-29T09:50:31;59.05;;;29.73;;
74541;SDS011;63015;45.378;20.360;2023-12-29T09:52:33;60.33;;;29.95;;
74541;SDS011;63015;45.378;20.360;2023-12-29T09:54:35;54.67;;;28.73;;
74541;SDS011;63015;45.378;20.360;2023-12-29T09:56:37;60.45;;;32.83;;
74541;SDS011;63015;45.378;20.360;2023-12-29T09:58:38;67.82;;;40.50;;
74541;SDS011;63015;45.378;20.360;2023-12-29T10:00:39;77.03;;;41.50;;
74541;SDS011;63015;45.378;20.360;2023-12-29T10:02:39;76.53;;;39.45;;
74541;SDS011;63015;45.378;20.360;2023-12-29T10:04:41;60.13;;;33.00;;
74541;SDS011;63015;45.378;20.360;2023-12-29T10:06:43;56.40;;;29.17;;
74541;SDS011;63015;45.378;20.360;2023-12-29T10:08:47;50.65;;;26.67;;
74541;SDS011;63015;45.378;20.360;2023-12-29T10:10:49;50.95;;;26.92;;
74541;SDS011;63015;45.378;20.360;2023-12-29T10:12:51;48.22;;;25.65;;
74541;SDS011;63015;45.378;20.360;2023-12-29T10:17:13;45.22;;;20.33;;
74541;SDS011;63015;45.378;20.360;2023-12-29T10:21:43;47.00;;;25.00;;
74541;SDS011;63015;45.378;20.360;2023-12-29T10:23:50;48.58;;;27.55;;
74541;SDS011;63015;45.378;20.360;2023-12-29T10:25:52;60.10;;;32.58;;
74541;SDS011;63015;45.378;20.360;2023-12-29T10:27:53;51.00;;;28.80;;
74541;SDS011;63015;45.378;20.360;2023-12-29T10:29:53;45.72;;;25.42;;
74541;SDS011;63015;45.378;20.360;2023-12-29T10:31:54;44.83;;;24.55;;
74541;SDS011;63015;45.378;20.360;2023-12-29T10:36:17;51.60;;;29.35;;
74541;SDS011;63015;45.378;20.360;2023-12-29T10:38:19;51.53;;;27.23;;
74541;SDS011;63015;45.378;20.360;2023-12-29T10:40:19;62.75;;;36.50;;
74541;SDS011;63015;45.378;20.360;2023-12-29T10:42:21;78.40;;;47.30;;
74541;SDS011;63015;45.378;20.360;2023-12-29T10:44:21;84.15;;;46.53;;
74541;SDS011;63015;45.378;20.360;2023-12-29T10:46:22;93.18;;;51.45;;
74541;SDS011;63015;45.378;20.360;2023-12-29T10:48:25;95.30;;;51.05;;
74541;SDS011;63015;45.378;20.360;2023-12-29T10:50:26;86.65;;;46.72;;
74541;SDS011;63015;45.378;20.360;2023-12-29T10:52:27;87.93;;;46.63;;
74541;SDS011;63015;45.378;20.360;2023-12-29T10:54:28;94.00;;;44.33;;
74541;SDS011;63015;45.378;20.360;2023-12-29T10:56:28;86.35;;;45.53;;
74541;SDS011;63015;45.378;20.360;2023-12-29T10:58:30;99.47;;;49.67;;
74541;SDS011;63015;45.378;20.360;2023-12-29T11:00:32;52.13;;;29.27;;
74541;SDS011;63015;45.378;20.360;2023-12-29T11:02:33;44.47;;;24.60;;
74541;SDS011;63015;45.378;20.360;2023-12-29T11:04:34;46.97;;;24.95;;
74541;SDS011;63015;45.378;20.360;2023-12-29T11:06:41;39.20;;;21.45;;
74541;SDS011;63015;45.378;20.360;2023-12-29T11:08:44;43.55;;;22.23;;
74541;SDS011;63015;45.378;20.360;2023-12-29T11:10:47;67.50;;;30.73;;
74541;SDS011;63015;45.378;20.360;2023-12-29T11:12:49;53.53;;;28.80;;
74541;SDS011;63015;45.378;20.360;2023-12-29T11:14:49;76.47;;;33.70;;
74541;SDS011;63015;45.378;20.360;2023-12-29T11:16:50;147.30;;;54.17;;
74541;SDS011;63015;45.378;20.360;2023-12-29T11:18:52;60.83;;;29.65;;
74541;SDS011;63015;45.378;20.360;2023-12-29T11:20:55;44.00;;;24.38;;
74541;SDS011;63015;45.378;20.360;2023-12-29T11:22:56;46.45;;;24.23;;
74541;SDS011;63015;45.378;20.360;2023-12-29T11:24:57;46.30;;;24.75;;
74541;SDS011;63015;45.378;20.360;2023-12-29T11:27:00;47.95;;;25.42;;
74541;SDS011;63015;45.378;20.360;2023-12-29T11:29:02;46.65;;;24.70;;
74541;SDS011;63015;45.378;20.360;2023-12-29T11:31:04;40.47;;;21.70;;
74541;SDS011;63015;45.378;20.360;2023-12-29T11:33:08;40.97;;;22.83;;
74541;SDS011;63015;45.378;20.360;2023-12-29T11:35:13;29.20;;;16.90;;
74541;SDS011;63015;45.378;20.360;2023-12-29T11:37:43;27.60;;;15.73;;
74541;SDS011;63015;45.378;20.360;2023-12-29T11:40:04;28.60;;;16.27;;
74541;SDS011;63015;45.378;20.360;2023-12-29T11:42:31;37.25;;;22.50;;
74541;SDS011;63015;45.378;20.360;2023-12-29T11:44:35;29.90;;;19.13;;
74541;SDS011;63015;45.378;20.360;2023-12-29T11:46:39;33.25;;;20.23;;